Time;durP1;ratioP1;P1;durP2;ratioP2;P2;SDS_P1;SDS_P2;PMS_P1;PMS_P2;Temp;Humidity;BMP_temperature;BMP_pressure;BME280_temperature;BME280_humidity;BME280_pressure;Samples;Min_cycle;Max_cycle;Signal;HPM_P1;HPM_P2
2023/04/19 00:00:26;;;;;;;9.13;5.93;;;;;;;-145.18;100.00;60484.78;5060365;28;20040;-67
2023/04/19 00:02:52;;;;;;;10.93;6.03;;;;;;;-145.18;100.00;60484.78;5054090;28;20071;-68
2023/04/19 00:05:21;;;;;;;10.33;6.23;;;;;;;-145.18;100.00;60484.78;5060655;28;20079;-68
2023/04/19 00:07:46;;;;;;;10.67;6.00;;;;;;;-145.18;100.00;60484.78;5056305;28;20442;-67
2023/04/19 00:10:12;;;;;;;10.83;6.30;;;;;;;-145.18;100.00;60484.78;5055664;28;20120;-67
2023/04/19 00:12:37;;;;;;;11.63;5.50;;;;;;;-145.18;100.00;60484.78;5052858;28;20037;-68
2023/04/19 00:15:04;;;;;;;10.83;5.57;;;;;;;-145.18;100.00;60484.78;5052564;28;20538;-70
2023/04/19 00:17:30;;;;;;;9.30;5.50;;;;;;;-145.18;100.00;60484.78;5054853;28;20081;-68
2023/04/19 00:19:55;;;;;;;11.70;5.80;;;;;;;-145.18;100.00;60484.78;5055218;28;20103;-68
2023/04/19 00:22:21;;;;;;;9.43;5.80;;;;;;;-145.18;100.00;60484.78;5052775;28;20066;-67
2023/04/19 00:24:46;;;;;;;10.97;6.43;;;;;;;-145.18;100.00;60484.78;5055546;28;20029;-68
2023/04/19 00:27:12;;;;;;;10.43;6.10;;;;;;;-145.18;100.00;60484.78;5057592;28;20473;-67
2023/04/19 00:29:37;;;;;;;12.37;6.07;;;;;;;-145.18;100.00;60484.78;5053280;28;20053;-68
2023/04/19 00:32:04;;;;;;;9.80;5.80;;;;;;;-145.18;100.00;60484.78;5055739;28;20028;-68
2023/04/19 00:34:30;;;;;;;10.43;5.87;;;;;;;-145.18;100.00;60484.78;5055716;28;20114;-68
2023/04/19 00:36:56;;;;;;;12.80;5.93;;;;;;;-145.18;100.00;60484.78;5055379;28;20059;-67
2023/04/19 00:39:21;;;;;;;9.93;5.60;;;;;;;-145.18;100.00;60484.78;5055946;28;20025;-68
2023/04/19 00:41:46;;;;;;;11.50;6.10;;;;;;;-145.18;100.00;60484.78;5054339;28;20028;-68
2023/04/19 00:44:12;;;;;;;10.70;5.90;;;;;;;-145.18;100.00;60484.78;5057765;28;20025;-67
2023/04/19 00:46:38;;;;;;;9.73;5.57;;;;;;;-145.18;100.00;60484.78;5053005;28;20474;-68
2023/04/19 00:49:03;;;;;;;12.17;6.23;;;;;;;-145.18;100.00;60484.78;5055730;28;20087;-67
2023/04/19 00:51:30;;;;;;;13.57;5.70;;;;;;;-145.18;100.00;60484.78;5056395;28;20029;-67
2023/04/19 00:53:56;;;;;;;11.03;5.40;;;;;;;-145.18;100.00;60484.78;5055912;28;20032;-68
2023/04/19 00:56:24;;;;;;;12.07;5.30;;;;;;;-145.18;100.00;60484.78;5056283;28;20438;-66
2023/04/19 00:58:50;;;;;;;11.33;5.90;;;;;;;-145.18;100.00;60484.78;5054004;28;20024;-67
2023/04/19 01:04:37;;;;;;;10.95;5.28;;;;;;;-145.18;100.00;60484.78;5050378;23;20534;-57
2023/04/19 01:07:02;;;;;;;12.27;4.90;;;;;;;-145.18;100.00;60484.78;5051427;28;20116;-58
2023/04/19 01:09:28;;;;;;;10.13;5.30;;;;;;;-145.18;100.00;60484.78;5054138;28;20029;-56
2023/04/19 01:11:53;;;;;;;9.20;4.87;;;;;;;-145.18;100.00;60484.78;5052071;28;20147;-56
2023/04/19 01:14:19;;;;;;;9.77;5.13;;;;;;;-145.18;100.00;60484.78;5051769;28;20036;-57
2023/04/19 01:16:45;;;;;;;10.23;5.60;;;;;;;-145.18;100.00;60484.78;5053331;28;20083;-56
2023/04/19 01:19:11;;;;;;;10.00;4.43;;;;;;;-145.18;100.00;60484.78;5051208;28;20387;-56
2023/04/19 01:21:38;;;;;;;9.43;4.87;;;;;;;-145.18;100.00;60484.78;5051914;28;20048;-56
2023/04/19 01:24:04;;;;;;;9.53;3.63;;;;;;;-145.18;100.00;60484.78;5052295;28;20338;-56
2023/04/19 01:26:30;;;;;;;8.10;4.07;;;;;;;-145.18;100.00;60484.78;5051750;28;20029;-56
2023/04/19 01:28:55;;;;;;;8.73;4.53;;;;;;;-145.18;100.00;60484.78;5051905;28;20594;-56
2023/04/19 01:31:21;;;;;;;9.07;4.80;;;;;;;-145.18;100.00;60484.78;5052513;28;20111;-56
2023/04/19 01:33:46;;;;;;;9.60;4.17;;;;;;;-145.18;100.00;60484.78;5052039;28;20040;-56
2023/04/19 01:36:12;;;;;;;8.73;3.27;;;;;;;-145.18;100.00;60484.78;5051835;28;20396;-56
2023/04/19 01:38:37;;;;;;;8.30;4.30;;;;;;;-145.18;100.00;60484.78;5051954;28;20545;-56
2023/04/19 01:41:03;;;;;;;8.83;4.13;;;;;;;-145.18;100.00;60484.78;5052069;28;20384;-56
2023/04/19 01:43:28;;;;;;;8.23;3.73;;;;;;;-145.18;100.00;60484.78;5052644;28;20020;-56
2023/04/19 01:45:54;;;;;;;6.90;3.70;;;;;;;-145.18;100.00;60484.78;5050869;28;20027;-56
2023/04/19 01:48:19;;;;;;;8.43;4.00;;;;;;;-145.18;100.00;60484.78;5051407;28;20048;-56
2023/04/19 01:50:45;;;;;;;7.07;4.00;;;;;;;-145.18;100.00;60484.78;5050574;28;20028;-57
2023/04/19 01:53:10;;;;;;;9.57;4.07;;;;;;;-145.18;100.00;60484.78;5050925;28;20055;-57
2023/04/19 01:55:36;;;;;;;7.33;3.90;;;;;;;-145.18;100.00;60484.78;5050040;28;20087;-57
2023/04/19 01:58:01;;;;;;;7.33;3.40;;;;;;;-145.18;100.00;60484.78;5052073;28;20433;-57
2023/04/19 02:00:27;;;;;;;7.23;3.60;;;;;;;-145.18;100.00;60484.78;5049244;28;20380;-57
2023/04/19 02:02:52;;;;;;;6.50;3.50;;;;;;;-145.18;100.00;60484.78;5050959;28;20021;-57
2023/04/19 02:05:17;;;;;;;7.90;3.80;;;;;;;-145.18;100.00;60484.78;5052295;28;20067;-60
2023/04/19 02:07:43;;;;;;;7.93;3.60;;;;;;;-145.18;100.00;60484.78;5049235;28;20029;-60
2023/04/19 02:10:12;;;;;;;8.40;4.13;;;;;;;-145.18;100.00;60484.78;5045905;28;20492;-57
2023/04/19 02:12:39;;;;;;;8.97;4.53;;;;;;;-145.18;100.00;60484.78;5050985;28;20079;-57
2023/04/19 02:15:05;;;;;;;7.70;3.87;;;;;;;-145.18;100.00;60484.78;5050007;28;20071;-57
2023/04/19 02:17:31;;;;;;;7.13;3.70;;;;;;;-145.18;100.00;60484.78;5049415;28;20029;-57
2023/04/19 02:19:56;;;;;;;7.90;3.50;;;;;;;-145.18;100.00;60484.78;5051287;28;20032;-57
2023/04/19 02:22:22;;;;;;;8.53;4.27;;;;;;;-145.18;100.00;60484.78;5051988;28;20051;-57
2023/04/19 02:24:50;;;;;;;10.37;3.90;;;;;;;-145.18;100.00;60484.78;5050546;28;20464;-57
2023/04/19 02:27:17;;;;;;;8.57;4.17;;;;;;;-145.18;100.00;60484.78;5052667;28;20389;-57
2023/04/19 02:29:43;;;;;;;7.00;3.83;;;;;;;-145.18;100.00;60484.78;5050804;28;20452;-57
2023/04/19 02:32:10;;;;;;;9.97;4.17;;;;;;;-145.18;100.00;60484.78;5051012;28;20099;-57
2023/04/19 02:34:36;;;;;;;6.57;3.53;;;;;;;-145.18;100.00;60484.78;5049358;28;20060;-57
2023/04/19 02:37:02;;;;;;;6.33;2.97;;;;;;;-145.18;100.00;60484.78;5052067;28;20052;-57
2023/04/19 02:39:28;;;;;;;8.77;3.80;;;;;;;-145.18;100.00;60484.78;5046890;28;20021;-57
2023/04/19 02:41:54;;;;;;;7.83;3.80;;;;;;;-145.18;100.00;60484.78;5051031;28;20033;-57
2023/04/19 02:44:19;;;;;;;6.47;3.60;;;;;;;-145.18;100.00;60484.78;5052277;28;20371;-57
2023/04/19 02:46:51;;;;;;;7.23;3.70;;;;;;;-145.18;100.00;60484.78;5049663;28;20103;-57
2023/04/19 02:49:18;;;;;;;7.25;3.90;;;;;;;-145.18;100.00;60484.78;5049609;28;20396;-57
2023/04/19 02:51:43;;;;;;;6.17;3.33;;;;;;;-145.18;100.00;60484.78;5044511;28;20489;-57
2023/04/19 02:54:10;;;;;;;6.37;3.10;;;;;;;-145.18;100.00;60484.78;5051627;28;20017;-57
2023/04/19 02:56:35;;;;;;;6.00;3.33;;;;;;;-145.18;100.00;60484.78;5054876;28;20083;-57
2023/04/19 02:59:03;;;;;;;7.33;3.50;;;;;;;-145.18;100.00;60484.78;5051581;28;20480;-57
2023/04/19 03:01:29;;;;;;;8.27;3.93;;;;;;;-145.18;100.00;60484.78;5049749;28;20024;-57
2023/04/19 03:03:55;;;;;;;7.47;3.90;;;;;;;-145.18;100.00;60484.78;5048750;28;20033;-57
2023/04/19 03:06:20;;;;;;;6.60;3.63;;;;;;;-145.18;100.00;60484.78;5051718;28;20024;-57
2023/04/19 03:08:46;;;;;;;7.07;3.60;;;;;;;-145.18;100.00;60484.78;5050601;28;20515;-57
2023/04/19 03:11:12;;;;;;;8.27;3.97;;;;;;;-145.18;100.00;60484.78;5050663;28;20028;-57
2023/04/19 03:13:39;;;;;;;8.67;4.20;;;;;;;-145.18;100.00;60484.78;5049712;28;20097;-57
2023/04/19 03:16:05;;;;;;;7.40;3.83;;;;;;;-145.18;100.00;60484.78;5048668;28;20116;-56
2023/04/19 03:18:31;;;;;;;7.50;3.63;;;;;;;-145.18;100.00;60484.78;5048289;28;20029;-57
2023/04/19 03:20:56;;;;;;;7.17;3.70;;;;;;;-145.18;100.00;60484.78;5049884;28;20086;-57
2023/04/19 03:23:22;;;;;;;8.13;4.17;;;;;;;-145.18;100.00;60484.78;5049817;28;20025;-57
2023/04/19 03:25:47;;;;;;;11.00;4.13;;;;;;;-145.18;100.00;60484.78;5050786;28;20498;-57
2023/04/19 03:28:13;;;;;;;8.53;3.93;;;;;;;-145.18;100.00;60484.78;5051197;28;20080;-58
2023/04/19 03:30:38;;;;;;;7.13;4.17;;;;;;;-145.18;100.00;60484.78;5047978;28;20107;-57
2023/04/19 03:33:04;;;;;;;9.37;4.30;;;;;;;-145.18;100.00;60484.78;5050348;28;20393;-57
2023/04/19 03:35:31;;;;;;;9.30;4.70;;;;;;;-145.18;100.00;60484.78;5049352;28;20036;-57
2023/04/19 03:37:56;;;;;;;7.43;4.20;;;;;;;-145.18;100.00;60484.78;5051184;28;20033;-57
2023/04/19 03:40:22;;;;;;;7.37;3.80;;;;;;;-145.18;100.00;60484.78;5049285;28;20028;-57
2023/04/19 03:42:47;;;;;;;9.50;4.33;;;;;;;-145.18;100.00;60484.78;5050065;28;20021;-58
2023/04/19 03:45:13;;;;;;;7.93;4.10;;;;;;;-145.18;100.00;60484.78;5050577;28;20039;-57
2023/04/19 03:47:39;;;;;;;9.07;4.53;;;;;;;-145.18;100.00;60484.78;5049775;28;20365;-58
2023/04/19 03:50:05;;;;;;;9.33;4.67;;;;;;;-145.18;100.00;60484.78;5050553;28;20025;-58
2023/04/19 03:52:30;;;;;;;11.50;5.10;;;;;;;-145.18;100.00;60484.78;5048910;28;20079;-57
2023/04/19 03:54:56;;;;;;;9.53;4.93;;;;;;;-145.18;100.00;60484.78;5050608;28;20028;-57
2023/04/19 03:57:21;;;;;;;15.50;5.20;;;;;;;-145.18;100.00;60484.78;5050216;28;20034;-57
2023/04/19 03:59:47;;;;;;;10.07;4.80;;;;;;;-145.18;100.00;60484.78;5048774;28;20024;-57
2023/04/19 04:02:12;;;;;;;10.30;4.63;;;;;;;-145.18;100.00;60484.78;5046900;28;20036;-57
2023/04/19 04:04:38;;;;;;;12.10;4.60;;;;;;;-145.18;100.00;60484.78;5046713;28;20144;-57
2023/04/19 04:07:03;;;;;;;8.57;5.00;;;;;;;-145.18;100.00;60484.78;5045992;28;20032;-57
2023/04/19 04:09:29;;;;;;;9.60;5.20;;;;;;;-145.18;100.00;60484.78;5050174;28;20032;-58
2023/04/19 04:11:54;;;;;;;9.63;4.93;;;;;;;-145.18;100.00;60484.78;5048464;28;20020;-56
2023/04/19 04:14:20;;;;;;;9.77;4.27;;;;;;;-145.18;100.00;60484.78;5049753;28;20358;-58
2023/04/19 04:16:45;;;;;;;8.70;4.57;;;;;;;-145.18;100.00;60484.78;5045589;28;20037;-57
2023/04/19 04:19:10;;;;;;;7.73;4.30;;;;;;;-145.18;100.00;60484.78;5050391;28;20028;-57
2023/04/19 04:21:36;;;;;;;8.90;4.53;;;;;;;-145.18;100.00;60484.78;5048304;28;20490;-58
2023/04/19 04:24:02;;;;;;;12.33;4.90;;;;;;;-145.18;100.00;60484.78;5048599;28;20103;-58
2023/04/19 04:26:32;;;;;;;13.53;5.27;;;;;;;-145.18;100.00;60484.78;5049601;28;20067;-57
2023/04/19 04:28:59;;;;;;;12.00;4.97;;;;;;;-145.18;100.00;60484.78;5050362;28;20033;-58
2023/04/19 04:31:24;;;;;;;9.30;5.03;;;;;;;-145.18;100.00;60484.78;5047958;28;20040;-57
2023/04/19 04:33:52;;;;;;;10.50;5.00;;;;;;;-145.18;100.00;60484.78;5048467;28;20029;-57
2023/04/19 04:36:17;;;;;;;11.83;4.70;;;;;;;-145.18;100.00;60484.78;5052329;28;20421;-57
2023/04/19 04:38:43;;;;;;;9.63;4.43;;;;;;;-145.18;100.00;60484.78;5049791;28;20065;-57
2023/04/19 04:41:10;;;;;;;11.30;5.23;;;;;;;-145.18;100.00;60484.78;5054042;28;20028;-57
2023/04/19 04:43:37;;;;;;;9.97;4.80;;;;;;;-145.18;100.00;60484.78;5052618;28;20030;-57
2023/04/19 04:46:02;;;;;;;8.67;4.53;;;;;;;-145.18;100.00;60484.78;5053564;28;20036;-57
2023/04/19 04:48:30;;;;;;;9.80;4.90;;;;;;;-145.18;100.00;60484.78;5053470;28;20028;-57
2023/04/19 04:50:55;;;;;;;9.07;4.90;;;;;;;-145.18;100.00;60484.78;5052810;28;20021;-57
2023/04/19 04:53:21;;;;;;;9.77;4.20;;;;;;;-145.18;100.00;60484.78;5049847;28;20016;-57
2023/04/19 04:55:46;;;;;;;11.07;5.37;;;;;;;-145.18;100.00;60484.78;5053884;28;20131;-58
2023/04/19 04:58:12;;;;;;;10.27;4.80;;;;;;;-145.18;100.00;60484.78;5049060;28;20029;-57
2023/04/19 05:00:37;;;;;;;10.10;5.10;;;;;;;-145.18;100.00;60484.78;5048268;28;20028;-56
2023/04/19 05:03:03;;;;;;;10.50;4.77;;;;;;;-145.18;100.00;60484.78;5052944;28;20389;-57
2023/04/19 05:05:28;;;;;;;10.20;4.53;;;;;;;-145.18;100.00;60484.78;5055015;28;20055;-57
2023/04/19 05:07:54;;;;;;;10.37;4.53;;;;;;;-145.18;100.00;60484.78;5054480;28;20408;-57
2023/04/19 05:10:20;;;;;;;10.30;4.27;;;;;;;-145.18;100.00;60484.78;5054048;28;20037;-57
2023/04/19 05:12:45;;;;;;;8.87;4.17;;;;;;;-145.18;100.00;60484.78;5055466;28;20074;-57
2023/04/19 05:15:10;;;;;;;8.63;4.20;;;;;;;-145.18;100.00;60484.78;5055531;28;20036;-58
2023/04/19 05:17:36;;;;;;;6.60;3.70;;;;;;;-145.18;100.00;60484.78;5054417;28;20504;-57
2023/04/19 05:20:02;;;;;;;8.97;4.27;;;;;;;-145.18;100.00;60484.78;5054382;28;20028;-57
2023/04/19 05:22:28;;;;;;;8.83;3.90;;;;;;;-145.18;100.00;60484.78;5055373;28;20582;-57
2023/04/19 05:24:54;;;;;;;8.30;3.43;;;;;;;-145.18;100.00;60484.78;5054322;28;20028;-57
2023/04/19 05:27:19;;;;;;;9.27;4.00;;;;;;;-145.18;100.00;60484.78;5055347;28;20033;-57
2023/04/19 05:29:45;;;;;;;8.27;4.27;;;;;;;-145.18;100.00;60484.78;5055904;28;20459;-58
2023/04/19 05:32:10;;;;;;;6.57;3.20;;;;;;;-145.18;100.00;60484.78;5054190;28;20415;-57
2023/04/19 05:34:36;;;;;;;8.33;3.63;;;;;;;-145.18;100.00;60484.78;5053088;28;20036;-57
2023/04/19 05:37:02;;;;;;;8.87;3.73;;;;;;;-145.18;100.00;60484.78;5052971;28;20087;-57
2023/04/19 05:39:27;;;;;;;6.77;3.30;;;;;;;-145.18;100.00;60484.78;5053272;28;20060;-57
2023/04/19 05:41:53;;;;;;;7.93;3.83;;;;;;;-145.18;100.00;60484.78;5052828;28;20060;-57
2023/04/19 05:44:18;;;;;;;7.07;3.80;;;;;;;-145.18;100.00;60484.78;5054029;28;20380;-57
2023/04/19 05:46:44;;;;;;;8.03;3.60;;;;;;;-145.18;100.00;60484.78;5054504;28;20028;-57
2023/04/19 05:49:09;;;;;;;9.07;3.73;;;;;;;-145.18;100.00;60484.78;5052849;28;20484;-57
2023/04/19 05:51:35;;;;;;;7.23;3.53;;;;;;;-145.18;100.00;60484.78;5053626;28;20048;-57
2023/04/19 05:54:00;;;;;;;7.43;3.17;;;;;;;-145.18;100.00;60484.78;5053150;28;20017;-57
2023/04/19 05:56:26;;;;;;;6.97;3.30;;;;;;;-145.18;100.00;60484.78;5053454;28;20112;-57
2023/04/19 05:58:51;;;;;;;9.63;3.90;;;;;;;-145.18;100.00;60484.78;5054330;28;20027;-57
2023/04/19 06:01:17;;;;;;;9.27;3.60;;;;;;;-145.18;100.00;60484.78;5053688;28;20040;-57
2023/04/19 06:03:42;;;;;;;7.07;3.17;;;;;;;-145.18;100.00;60484.78;5052176;28;20460;-57
2023/04/19 06:06:08;;;;;;;7.37;3.80;;;;;;;-145.18;100.00;60484.78;5053458;28;20080;-57
2023/04/19 06:08:33;;;;;;;7.47;3.77;;;;;;;-145.18;100.00;60484.78;5053192;28;20354;-57
2023/04/19 06:10:59;;;;;;;6.73;3.37;;;;;;;-145.18;100.00;60484.78;5054035;28;20037;-58
2023/04/19 06:13:25;;;;;;;9.10;3.27;;;;;;;-145.18;100.00;60484.78;5053000;28;20074;-57
2023/04/19 06:15:50;;;;;;;7.73;3.10;;;;;;;-145.18;100.00;60484.78;5053970;28;20288;-57
2023/04/19 06:18:16;;;;;;;6.17;2.83;;;;;;;-145.18;100.00;60484.78;5054023;28;20059;-57
2023/04/19 06:20:41;;;;;;;7.57;3.47;;;;;;;-145.18;100.00;60484.78;5053350;28;20029;-57
2023/04/19 06:23:07;;;;;;;6.60;3.20;;;;;;;-145.18;100.00;60484.78;5052108;28;20027;-58
2023/04/19 06:25:32;;;;;;;4.93;2.10;;;;;;;-145.18;100.00;60484.78;5043375;28;20030;-58
2023/04/19 06:27:58;;;;;;;10.77;3.00;;;;;;;-145.18;100.00;60484.78;5053554;28;20032;-57
2023/04/19 06:30:23;;;;;;;7.03;3.00;;;;;;;-145.18;100.00;60484.78;5052440;28;20025;-57
2023/04/19 06:32:49;;;;;;;7.93;3.33;;;;;;;-145.18;100.00;60484.78;5053556;28;20021;-57
2023/04/19 06:35:15;;;;;;;6.03;2.93;;;;;;;-145.18;100.00;60484.78;5050575;28;20105;-57
2023/04/19 06:37:40;;;;;;;8.77;3.43;;;;;;;-145.18;100.00;60484.78;5053097;28;20033;-57
2023/04/19 06:40:07;;;;;;;6.53;3.20;;;;;;;-145.18;100.00;60484.78;5053948;28;20021;-57
2023/04/19 06:42:35;;;;;;;9.23;3.70;;;;;;;-145.18;100.00;60484.78;5050223;28;20742;-57
2023/04/19 06:45:01;;;;;;;6.30;3.17;;;;;;;-145.18;100.00;60484.78;5053863;28;20028;-57
2023/04/19 06:47:27;;;;;;;9.40;3.60;;;;;;;-145.18;100.00;60484.78;5052601;28;20041;-57
2023/04/19 06:49:53;;;;;;;4.73;2.20;;;;;;;-145.18;100.00;60484.78;5052653;28;20050;-58
2023/04/19 06:52:19;;;;;;;6.57;2.90;;;;;;;-145.18;100.00;60484.78;5053136;28;20039;-57
2023/04/19 06:54:48;;;;;;;5.10;2.67;;;;;;;-145.18;100.00;60484.78;5053710;28;20106;-57
2023/04/19 06:57:15;;;;;;;6.23;3.10;;;;;;;-145.18;100.00;60484.78;5053386;28;20103;-57
2023/04/19 06:59:40;;;;;;;6.17;3.10;;;;;;;-145.18;100.00;60484.78;5052258;28;20457;-57
2023/04/19 07:02:06;;;;;;;7.17;3.47;;;;;;;-145.18;100.00;60484.78;5053612;28;20028;-57
2023/04/19 07:04:32;;;;;;;5.73;2.87;;;;;;;-145.18;100.00;60484.78;5052023;28;20045;-57
2023/04/19 07:06:57;;;;;;;5.97;3.23;;;;;;;-145.18;100.00;60484.78;5053152;28;20029;-57
2023/04/19 07:09:23;;;;;;;8.60;3.17;;;;;;;-145.18;100.00;60484.78;5053446;28;20033;-57
2023/04/19 07:11:50;;;;;;;6.50;3.27;;;;;;;-145.18;100.00;60484.78;5051946;28;20055;-58
2023/04/19 07:14:17;;;;;;;8.67;3.17;;;;;;;-145.18;100.00;60484.78;5053317;28;20025;-58
2023/04/19 07:16:44;;;;;;;6.10;2.87;;;;;;;-145.18;100.00;60484.78;5052643;28;20598;-57
2023/04/19 07:19:10;;;;;;;7.60;3.40;;;;;;;-145.18;100.00;60484.78;5053348;28;20404;-57
2023/04/19 07:21:37;;;;;;;8.63;2.50;;;;;;;-145.18;100.00;60484.78;5052067;28;20021;-58
2023/04/19 07:24:03;;;;;;;7.07;3.30;;;;;;;-145.18;100.00;60484.78;5051604;28;20021;-58
2023/04/19 07:26:28;;;;;;;5.10;2.53;;;;;;;-145.18;100.00;60484.78;5052968;28;20031;-57
2023/04/19 07:28:54;;;;;;;6.93;3.13;;;;;;;-145.18;100.00;60484.78;5052207;28;20025;-57
2023/04/19 07:31:20;;;;;;;5.53;2.03;;;;;;;-145.18;100.00;60484.78;5052008;28;20029;-57
2023/04/19 07:33:45;;;;;;;10.20;2.70;;;;;;;-145.18;100.00;60484.78;5050251;28;20028;-56
2023/04/19 07:36:11;;;;;;;5.37;2.63;;;;;;;-145.18;100.00;60484.78;5050316;28;20044;-56
2023/04/19 07:38:37;;;;;;;6.57;2.57;;;;;;;-145.18;100.00;60484.78;5051704;28;20029;-55
2023/04/19 07:41:04;;;;;;;7.90;3.00;;;;;;;-145.18;100.00;60484.78;5052745;28;20024;-56
2023/04/19 07:43:29;;;;;;;5.37;2.60;;;;;;;-145.18;100.00;60484.78;5051071;28;20469;-56
2023/04/19 07:45:55;;;;;;;6.90;2.90;;;;;;;-145.18;100.00;60484.78;5051987;28;20112;-56
2023/04/19 07:48:20;;;;;;;5.88;2.85;;;;;;;-145.18;100.00;60484.78;5051670;28;20031;-57
2023/04/19 07:50:46;;;;;;;7.75;3.10;;;;;;;-145.18;100.00;60484.78;5051640;28;20029;-56
2023/04/19 07:53:11;;;;;;;4.97;2.50;;;;;;;-145.18;100.00;60484.78;5051753;28;20059;-57
2023/04/19 07:55:37;;;;;;;4.78;2.40;;;;;;;-145.18;100.00;60484.78;5050381;28;20059;-57
2023/04/19 07:58:02;;;;;;;5.85;2.60;;;;;;;-145.18;100.00;60484.78;5052191;28;20032;-57
2023/04/19 08:00:33;;;;;;;4.22;2.30;;;;;;;-145.18;100.00;60484.78;5050826;28;20033;-57
2023/04/19 08:02:59;;;;;;;7.32;2.67;;;;;;;-145.18;100.00;60484.78;5052214;28;20115;-57
2023/04/19 08:05:25;;;;;;;3.63;1.95;;;;;;;-145.18;100.00;60484.78;5050179;28;20505;-57
2023/04/19 08:07:51;;;;;;;4.63;2.25;;;;;;;-145.18;100.00;60484.78;5052241;28;20434;-55
2023/04/19 08:10:17;;;;;;;5.70;2.13;;;;;;;-145.18;100.00;60484.78;5052767;28;20029;-57
2023/04/19 08:12:43;;;;;;;4.85;2.10;;;;;;;-145.18;100.00;60484.78;5050267;28;20052;-57
2023/04/19 08:15:08;;;;;;;3.83;1.95;;;;;;;-145.18;100.00;60484.78;5051775;28;20512;-57
2023/04/19 08:17:34;;;;;;;4.90;2.10;;;;;;;-145.18;100.00;60484.78;5054566;28;20029;-57
2023/04/19 08:20:00;;;;;;;5.75;2.55;;;;;;;-145.18;100.00;60484.78;5055834;28;20053;-57
2023/04/19 08:22:25;;;;;;;5.25;2.65;;;;;;;-145.18;100.00;60484.78;5053122;28;20028;-56
2023/04/19 08:24:52;;;;;;;5.43;2.33;;;;;;;-145.18;100.00;60484.78;5055446;28;20029;-57
2023/04/19 08:27:18;;;;;;;4.72;2.50;;;;;;;-145.18;100.00;60484.78;5055867;28;20465;-57
2023/04/19 08:29:44;;;;;;;5.75;2.42;;;;;;;-145.18;100.00;60484.78;5054419;28;20103;-56
2023/04/19 08:32:10;;;;;;;6.95;2.42;;;;;;;-145.18;100.00;60484.78;5052751;28;20544;-57
2023/04/19 08:34:37;;;;;;;6.55;2.53;;;;;;;-145.18;100.00;60484.78;5055599;28;20036;-57
2023/04/19 08:37:03;;;;;;;6.72;2.40;;;;;;;-145.18;100.00;60484.78;5054872;28;20083;-57
2023/04/19 08:39:29;;;;;;;5.25;2.83;;;;;;;-145.18;100.00;60484.78;5054699;28;20025;-57
2023/04/19 08:41:58;;;;;;;5.07;2.22;;;;;;;-145.18;100.00;60484.78;5055156;28;20381;-57
2023/04/19 08:44:25;;;;;;;6.03;2.35;;;;;;;-145.18;100.00;60484.78;5053580;28;20067;-57
2023/04/19 08:46:51;;;;;;;4.43;2.05;;;;;;;-145.18;100.00;60484.78;5031910;28;20039;-57
2023/04/19 08:49:20;;;;;;;4.68;2.13;;;;;;;-145.18;100.00;60484.78;5055518;28;20112;-57
2023/04/19 08:51:48;;;;;;;5.13;2.00;;;;;;;-145.18;100.00;60484.78;5053267;28;20029;-57
2023/04/19 08:54:15;;;;;;;4.55;2.22;;;;;;;-145.18;100.00;60484.78;5054192;28;20017;-57
2023/04/19 08:56:40;;;;;;;5.65;2.20;;;;;;;-145.18;100.00;60484.78;5054172;28;20035;-57
2023/04/19 08:59:06;;;;;;;3.65;2.00;;;;;;;-145.18;100.00;60484.78;5055031;28;20033;-57
2023/04/19 09:01:31;;;;;;;3.78;1.67;;;;;;;-145.18;100.00;60484.78;5054229;28;20052;-57
2023/04/19 09:03:57;;;;;;;3.58;1.80;;;;;;;-145.18;100.00;60484.78;5055305;28;20076;-57
2023/04/19 09:06:23;;;;;;;5.32;2.10;;;;;;;-145.18;100.00;60484.78;5054862;28;20033;-57
2023/04/19 09:08:50;;;;;;;5.28;1.83;;;;;;;-145.18;100.00;60484.78;5036636;28;20049;-57
2023/04/19 09:11:15;;;;;;;3.55;1.92;;;;;;;-145.18;100.00;60484.78;5054263;28;20040;-57
2023/04/19 09:13:43;;;;;;;6.00;2.20;;;;;;;-145.18;100.00;60484.78;5055047;28;20017;-57
2023/04/19 09:16:25;;;;;;;3.53;1.70;;;;;;;-145.18;100.00;60484.78;5054173;28;20036;-56
2023/04/19 09:18:58;;;;;;;3.50;1.40;;;;;;;-145.18;100.00;60484.78;5053217;28;20040;-57
2023/04/19 09:21:31;;;;;;;4.78;2.05;;;;;;;-145.18;100.00;60484.78;5055167;28;20029;-57
2023/04/19 09:23:56;;;;;;;4.80;1.90;;;;;;;-145.18;100.00;60484.78;5055118;28;20074;-57
2023/04/19 09:26:22;;;;;;;3.92;1.80;;;;;;;-145.18;100.00;60484.78;5055092;28;20025;-57
2023/04/19 09:29:01;;;;;;;4.15;2.10;;;;;;;-145.18;100.00;60484.78;5054009;28;20033;-57
2023/04/19 09:31:34;;;;;;;4.78;2.10;;;;;;;-145.18;100.00;60484.78;5053805;28;20079;-57
2023/04/19 09:34:18;;;;;;;3.90;1.40;;;;;;;-145.18;100.00;60484.78;5050557;28;20027;-57
2023/04/19 09:36:43;;;;;;;4.75;2.15;;;;;;;-145.18;100.00;60484.78;5054171;28;20048;-57
2023/04/19 09:39:10;;;;;;;4.78;1.77;;;;;;;-145.18;100.00;60484.78;5054248;28;20025;-57
2023/04/19 09:41:50;;;;;;;4.65;1.65;;;;;;;-145.18;100.00;60484.78;5053341;28;20110;-57
2023/04/19 09:44:16;;;;;;;5.40;2.10;;;;;;;-145.18;100.00;60484.78;5034849;28;20083;-57
2023/04/19 09:46:44;;;;;;;4.57;2.03;;;;;;;-145.18;100.00;60484.78;5053842;28;20033;-57
2023/04/19 09:49:22;;;;;;;5.25;1.88;;;;;;;-145.18;100.00;60484.78;5053313;28;20039;-57
2023/04/19 09:51:53;;;;;;;4.50;1.90;;;;;;;-145.18;100.00;60484.78;5034310;28;20026;-57
2023/04/19 09:54:20;;;;;;;4.22;1.77;;;;;;;-145.18;100.00;60484.78;5049213;28;20499;-57
2023/04/19 09:56:46;;;;;;;4.13;1.63;;;;;;;-145.18;100.00;60484.78;5053858;28;20108;-57
2023/04/19 09:59:12;;;;;;;4.30;1.10;;;;;;;-145.18;100.00;60484.78;5052561;28;20025;-57
2023/04/19 10:01:58;;;;;;;4.38;1.73;;;;;;;-145.18;100.00;60484.78;5054674;28;20524;-57
2023/04/19 10:04:24;;;;;;;5.38;2.00;;;;;;;-145.18;100.00;60484.78;5043484;28;20079;-58
2023/04/19 10:06:51;;;;;;;3.42;1.88;;;;;;;-145.18;100.00;60484.78;5051269;28;20057;-57
2023/04/19 10:09:18;;;;;;;3.65;1.75;;;;;;;-145.18;100.00;60484.78;5049516;28;20057;-57
2023/04/19 10:11:48;;;;;;;4.50;1.70;;;;;;;-145.18;100.00;60484.78;5053568;28;20028;-59
2023/04/19 10:14:15;;;;;;;4.60;2.10;;;;;;;-145.18;100.00;60484.78;5052154;28;20108;-57
2023/04/19 10:16:41;;;;;;;4.35;1.30;;;;;;;-145.18;100.00;60484.78;5052535;28;20033;-57
2023/04/19 10:19:17;;;;;;;5.38;1.90;;;;;;;-145.18;100.00;60484.78;5038760;28;20032;-57
2023/04/19 10:21:46;;;;;;;3.33;1.40;;;;;;;-145.18;100.00;60484.78;5051576;28;20048;-58
2023/04/19 10:24:12;;;;;;;3.05;1.55;;;;;;;-145.18;100.00;60484.78;5051769;28;20013;-57
2023/04/19 10:27:12;;;;;;;4.43;2.03;;;;;;;-145.18;100.00;60484.78;5053122;28;20025;-57
2023/04/19 10:30:00;;;;;;;5.35;1.98;;;;;;;-145.18;100.00;60484.78;5033082;28;20022;-57
2023/04/19 10:32:37;;;;;;;6.43;1.80;;;;;;;-145.18;100.00;60484.78;5049078;28;20477;-58
2023/04/19 10:35:07;;;;;;;4.38;1.55;;;;;;;-145.18;100.00;60484.78;5050830;28;20120;-57
2023/04/19 10:37:33;;;;;;;5.78;1.70;;;;;;;-145.18;100.00;60484.78;5051092;28;20348;-57
2023/04/19 10:39:58;;;;;;;4.20;1.73;;;;;;;-145.18;100.00;60484.78;5051338;28;20024;-57
2023/04/19 10:42:24;;;;;;;3.90;2.20;;;;;;;-145.18;100.00;60484.78;5046202;28;20017;-57
2023/04/19 10:45:30;;;;;;;5.32;1.90;;;;;;;-145.18;100.00;60484.78;5050967;28;20025;-57
2023/04/19 10:47:56;;;;;;;3.10;1.88;;;;;;;-145.18;100.00;60484.78;5052142;28;20028;-57
2023/04/19 10:50:23;;;;;;;4.78;2.10;;;;;;;-145.18;100.00;60484.78;5050015;28;20029;-58
2023/04/19 10:52:48;;;;;;;6.95;2.00;;;;;;;-145.18;100.00;60484.78;5052122;28;20453;-58
2023/04/19 10:55:19;;;;;;;5.55;2.08;;;;;;;-145.18;100.00;60484.78;5051581;28;20036;-58
2023/04/19 10:58:04;;;;;;;6.80;2.30;;;;;;;-145.18;100.00;60484.78;5049692;28;20029;-57
2023/04/19 11:00:31;;;;;;;3.45;1.58;;;;;;;-145.18;100.00;60484.78;5050565;28;20279;-58
2023/04/19 11:06:08;;;;;;;5.13;1.80;;;;;;;;;;5130440;27;20367;-58
2023/04/19 11:08:34;;;;;;;3.67;1.80;;;;;;;;;;5118536;27;20094;-58
2023/04/19 11:10:59;;;;;;;3.80;1.70;;;;;;;;;;5131478;27;20402;-58
2023/04/19 11:13:24;;;;;;;6.32;1.90;;;;;;;;;;5131125;27;20077;-58
2023/04/19 11:15:50;;;;;;;3.40;1.20;;;;;;;;;;5121255;27;20084;-57